<?xml version="1.0" encoding="UTF-8" standalone="no" ?>
<gpx xmlns="http://www.topografix.com/GPX/1/1" xmlns:xsi="http://www.w3.org/2001/XMLSchema-instance" xsi:schemaLocation="http://www.topografix.com/GPX/1/1 http://www.topografix.com/GPX/1/1/gpx.xsd" version="1.1" creator="VisuGPX - https://www.visugpx.com">
  <metadata>
    <name>montillot Charbonnière 11km</name>
    <desc><![CDATA[Mont tillot La Charbonnière
Dist 11km.   Dev+ 180m
Parking gymnaste Montillot]]></desc>
  </metadata>
  <trk>
    <name><![CDATA[montillot Charbonnière 11km_1]]></name>
    <extensions>
      <line xmlns="http://www.topografix.com/GPX/gpx_style/0/2">
        <color>0000FF</color>
        <width>4</width>
      </line>
    </extensions>
    <trkseg>
      <trkpt lat="47.51918" lon="3.71999">
        <ele>233</ele>
        <time>2021-04-26T08:29:27+02:00</time>
      </trkpt>
      <trkpt lat="47.51968" lon="3.71872">
        <ele>227</ele>
        <time>2021-04-26T08:29:32+02:00</time>
      </trkpt>
      <trkpt lat="47.52045" lon="3.71754">
        <ele>224</ele>
        <time>2021-04-26T08:29:37+02:00</time>
      </trkpt>
      <trkpt lat="47.51935" lon="3.71666">
        <ele>227</ele>
        <time>2021-04-26T08:29:42+02:00</time>
      </trkpt>
      <trkpt lat="47.51882" lon="3.71592">
        <ele>230</ele>
        <time>2021-04-26T08:29:47+02:00</time>
      </trkpt>
      <trkpt lat="47.51699" lon="3.71447">
        <ele>244</ele>
        <time>2021-04-26T08:29:52+02:00</time>
      </trkpt>
      <trkpt lat="47.51669" lon="3.71342">
        <ele>251</ele>
        <time>2021-04-26T08:29:57+02:00</time>
      </trkpt>
      <trkpt lat="47.51548" lon="3.71474">
        <ele>259</ele>
        <time>2021-04-26T08:30:02+02:00</time>
      </trkpt>
      <trkpt lat="47.51169" lon="3.71339">
        <ele>290</ele>
        <time>2021-04-26T08:30:07+02:00</time>
      </trkpt>
      <trkpt lat="47.51057" lon="3.71203">
        <ele>302</ele>
        <time>2021-04-26T08:30:12+02:00</time>
      </trkpt>
      <trkpt lat="47.50927" lon="3.71102">
        <ele>311</ele>
        <time>2021-04-26T08:30:17+02:00</time>
      </trkpt>
      <trkpt lat="47.50818" lon="3.71032">
        <ele>319</ele>
        <time>2021-04-26T08:30:22+02:00</time>
      </trkpt>
      <trkpt lat="47.5067" lon="3.7098">
        <ele>315</ele>
        <time>2021-04-26T08:30:27+02:00</time>
      </trkpt>
      <trkpt lat="47.50614" lon="3.70998">
        <ele>313</ele>
        <time>2021-04-26T08:30:32+02:00</time>
      </trkpt>
      <trkpt lat="47.5055" lon="3.70909">
        <ele>308</ele>
        <time>2021-04-26T08:30:37+02:00</time>
      </trkpt>
      <trkpt lat="47.50466" lon="3.70802">
        <ele>301</ele>
        <time>2021-04-26T08:30:42+02:00</time>
      </trkpt>
      <trkpt lat="47.50352" lon="3.70596">
        <ele>295</ele>
        <time>2021-04-26T08:30:47+02:00</time>
      </trkpt>
      <trkpt lat="47.50291" lon="3.70476">
        <ele>289</ele>
        <time>2021-04-26T08:30:52+02:00</time>
      </trkpt>
      <trkpt lat="47.50258" lon="3.70348">
        <ele>281</ele>
        <time>2021-04-26T08:30:57+02:00</time>
      </trkpt>
      <trkpt lat="47.50245" lon="3.70235">
        <ele>274</ele>
        <time>2021-04-26T08:31:02+02:00</time>
      </trkpt>
      <trkpt lat="47.50217" lon="3.70089">
        <ele>262</ele>
        <time>2021-04-26T08:31:07+02:00</time>
      </trkpt>
      <trkpt lat="47.5021" lon="3.6995">
        <ele>256</ele>
        <time>2021-04-26T08:31:12+02:00</time>
      </trkpt>
      <trkpt lat="47.50199" lon="3.69875">
        <ele>252</ele>
        <time>2021-04-26T08:31:17+02:00</time>
      </trkpt>
      <trkpt lat="47.50165" lon="3.69823">
        <ele>249</ele>
        <time>2021-04-26T08:31:22+02:00</time>
      </trkpt>
      <trkpt lat="47.50066" lon="3.69669">
        <ele>245</ele>
        <time>2021-04-26T08:31:27+02:00</time>
      </trkpt>
      <trkpt lat="47.49951" lon="3.69495">
        <ele>246</ele>
        <time>2021-04-26T08:31:32+02:00</time>
      </trkpt>
      <trkpt lat="47.49843" lon="3.69381">
        <ele>243</ele>
        <time>2021-04-26T08:31:37+02:00</time>
      </trkpt>
      <trkpt lat="47.4979" lon="3.69285">
        <ele>241</ele>
        <time>2021-04-26T08:31:42+02:00</time>
      </trkpt>
      <trkpt lat="47.49729" lon="3.69237">
        <ele>242</ele>
        <time>2021-04-26T08:31:47+02:00</time>
      </trkpt>
      <trkpt lat="47.4969" lon="3.69156">
        <ele>244</ele>
        <time>2021-04-26T08:31:52+02:00</time>
      </trkpt>
      <trkpt lat="47.49635" lon="3.69085">
        <ele>240</ele>
        <time>2021-04-26T08:31:57+02:00</time>
      </trkpt>
      <trkpt lat="47.49581" lon="3.69036">
        <ele>239</ele>
        <time>2021-04-26T08:32:02+02:00</time>
      </trkpt>
      <trkpt lat="47.49514" lon="3.68977">
        <ele>240</ele>
        <time>2021-04-26T08:32:07+02:00</time>
      </trkpt>
      <trkpt lat="47.49439" lon="3.68943">
        <ele>235</ele>
        <time>2021-04-26T08:32:12+02:00</time>
      </trkpt>
      <trkpt lat="47.49313" lon="3.68998">
        <ele>222</ele>
        <time>2021-04-26T08:32:17+02:00</time>
      </trkpt>
      <trkpt lat="47.49234" lon="3.69002">
        <ele>221</ele>
        <time>2021-04-26T08:32:22+02:00</time>
      </trkpt>
      <trkpt lat="47.49298" lon="3.69487">
        <ele>222</ele>
        <time>2021-04-26T08:32:27+02:00</time>
      </trkpt>
      <trkpt lat="47.49243" lon="3.69545">
        <ele>222</ele>
        <time>2021-04-26T08:32:32+02:00</time>
      </trkpt>
      <trkpt lat="47.49161" lon="3.69597">
        <ele>223</ele>
        <time>2021-04-26T08:32:37+02:00</time>
      </trkpt>
      <trkpt lat="47.49065" lon="3.69728">
        <ele>225</ele>
        <time>2021-04-26T08:32:42+02:00</time>
      </trkpt>
      <trkpt lat="47.48951" lon="3.69832">
        <ele>227</ele>
        <time>2021-04-26T08:32:47+02:00</time>
      </trkpt>
      <trkpt lat="47.49008" lon="3.69923">
        <ele>227</ele>
        <time>2021-04-26T08:32:52+02:00</time>
      </trkpt>
      <trkpt lat="47.49056" lon="3.6996">
        <ele>228</ele>
        <time>2021-04-26T08:32:57+02:00</time>
      </trkpt>
      <trkpt lat="47.49216" lon="3.7002">
        <ele>232</ele>
        <time>2021-04-26T08:33:02+02:00</time>
      </trkpt>
      <trkpt lat="47.49263" lon="3.70061">
        <ele>234</ele>
        <time>2021-04-26T08:33:07+02:00</time>
      </trkpt>
      <trkpt lat="47.4936" lon="3.70123">
        <ele>234</ele>
        <time>2021-04-26T08:33:12+02:00</time>
      </trkpt>
      <trkpt lat="47.49401" lon="3.70166">
        <ele>229</ele>
        <time>2021-04-26T08:33:17+02:00</time>
      </trkpt>
      <trkpt lat="47.49492" lon="3.70181">
        <ele>225</ele>
        <time>2021-04-26T08:33:22+02:00</time>
      </trkpt>
      <trkpt lat="47.49521" lon="3.70256">
        <ele>226</ele>
        <time>2021-04-26T08:33:27+02:00</time>
      </trkpt>
      <trkpt lat="47.49608" lon="3.70369">
        <ele>232</ele>
        <time>2021-04-26T08:33:32+02:00</time>
      </trkpt>
      <trkpt lat="47.49778" lon="3.70475">
        <ele>248</ele>
        <time>2021-04-26T08:33:37+02:00</time>
      </trkpt>
      <trkpt lat="47.49746" lon="3.70599">
        <ele>247</ele>
        <time>2021-04-26T08:33:42+02:00</time>
      </trkpt>
      <trkpt lat="47.49729" lon="3.70701">
        <ele>254</ele>
        <time>2021-04-26T08:33:47+02:00</time>
      </trkpt>
      <trkpt lat="47.4963" lon="3.70677">
        <ele>250</ele>
        <time>2021-04-26T08:33:52+02:00</time>
      </trkpt>
      <trkpt lat="47.49492" lon="3.7081">
        <ele>244</ele>
        <time>2021-04-26T08:33:57+02:00</time>
      </trkpt>
      <trkpt lat="47.49369" lon="3.71113">
        <ele>246</ele>
        <time>2021-04-26T08:34:02+02:00</time>
      </trkpt>
      <trkpt lat="47.49237" lon="3.71412">
        <ele>241</ele>
        <time>2021-04-26T08:34:07+02:00</time>
      </trkpt>
      <trkpt lat="47.49337" lon="3.7147">
        <ele>240</ele>
        <time>2021-04-26T08:34:12+02:00</time>
      </trkpt>
      <trkpt lat="47.49371" lon="3.71497">
        <ele>241</ele>
        <time>2021-04-26T08:34:17+02:00</time>
      </trkpt>
      <trkpt lat="47.49439" lon="3.71511">
        <ele>244</ele>
        <time>2021-04-26T08:34:22+02:00</time>
      </trkpt>
      <trkpt lat="47.49738" lon="3.71651">
        <ele>244</ele>
        <time>2021-04-26T08:34:27+02:00</time>
      </trkpt>
      <trkpt lat="47.49773" lon="3.71691">
        <ele>243</ele>
        <time>2021-04-26T08:34:32+02:00</time>
      </trkpt>
      <trkpt lat="47.49827" lon="3.71675">
        <ele>244</ele>
        <time>2021-04-26T08:34:37+02:00</time>
      </trkpt>
      <trkpt lat="47.49856" lon="3.71611">
        <ele>244</ele>
        <time>2021-04-26T08:34:42+02:00</time>
      </trkpt>
      <trkpt lat="47.49916" lon="3.71604">
        <ele>246</ele>
        <time>2021-04-26T08:34:47+02:00</time>
      </trkpt>
      <trkpt lat="47.5002" lon="3.71632">
        <ele>250</ele>
        <time>2021-04-26T08:34:52+02:00</time>
      </trkpt>
      <trkpt lat="47.50096" lon="3.71642">
        <ele>252</ele>
        <time>2021-04-26T08:34:57+02:00</time>
      </trkpt>
      <trkpt lat="47.5012" lon="3.71667">
        <ele>252</ele>
        <time>2021-04-26T08:35:02+02:00</time>
      </trkpt>
      <trkpt lat="47.50197" lon="3.71688">
        <ele>256</ele>
        <time>2021-04-26T08:35:07+02:00</time>
      </trkpt>
      <trkpt lat="47.50302" lon="3.71764">
        <ele>267</ele>
        <time>2021-04-26T08:35:12+02:00</time>
      </trkpt>
      <trkpt lat="47.50372" lon="3.71789">
        <ele>274</ele>
        <time>2021-04-26T08:35:17+02:00</time>
      </trkpt>
      <trkpt lat="47.50426" lon="3.71787">
        <ele>280</ele>
        <time>2021-04-26T08:35:22+02:00</time>
      </trkpt>
      <trkpt lat="47.50517" lon="3.71726">
        <ele>288</ele>
        <time>2021-04-26T08:35:27+02:00</time>
      </trkpt>
      <trkpt lat="47.50567" lon="3.71706">
        <ele>292</ele>
        <time>2021-04-26T08:35:32+02:00</time>
      </trkpt>
      <trkpt lat="47.50647" lon="3.71698">
        <ele>297</ele>
        <time>2021-04-26T08:35:37+02:00</time>
      </trkpt>
      <trkpt lat="47.50697" lon="3.71703">
        <ele>300</ele>
        <time>2021-04-26T08:35:42+02:00</time>
      </trkpt>
      <trkpt lat="47.50835" lon="3.71814">
        <ele>293</ele>
        <time>2021-04-26T08:35:47+02:00</time>
      </trkpt>
      <trkpt lat="47.5096" lon="3.71888">
        <ele>279</ele>
        <time>2021-04-26T08:35:52+02:00</time>
      </trkpt>
      <trkpt lat="47.51053" lon="3.72004">
        <ele>267</ele>
        <time>2021-04-26T08:35:57+02:00</time>
      </trkpt>
      <trkpt lat="47.51149" lon="3.72089">
        <ele>261</ele>
        <time>2021-04-26T08:36:02+02:00</time>
      </trkpt>
      <trkpt lat="47.51318" lon="3.72077">
        <ele>249</ele>
        <time>2021-04-26T08:36:07+02:00</time>
      </trkpt>
      <trkpt lat="47.51377" lon="3.72118">
        <ele>245</ele>
        <time>2021-04-26T08:36:12+02:00</time>
      </trkpt>
      <trkpt lat="47.51417" lon="3.72146">
        <ele>242</ele>
        <time>2021-04-26T08:36:17+02:00</time>
      </trkpt>
      <trkpt lat="47.51463" lon="3.72158">
        <ele>238</ele>
        <time>2021-04-26T08:36:22+02:00</time>
      </trkpt>
      <trkpt lat="47.5152" lon="3.72089">
        <ele>233</ele>
        <time>2021-04-26T08:36:27+02:00</time>
      </trkpt>
      <trkpt lat="47.51606" lon="3.72015">
        <ele>233</ele>
        <time>2021-04-26T08:36:32+02:00</time>
      </trkpt>
      <trkpt lat="47.5169" lon="3.72003">
        <ele>235</ele>
        <time>2021-04-26T08:36:37+02:00</time>
      </trkpt>
      <trkpt lat="47.51769" lon="3.71967">
        <ele>235</ele>
        <time>2021-04-26T08:36:42+02:00</time>
      </trkpt>
      <trkpt lat="47.51859" lon="3.71955">
        <ele>234</ele>
        <time>2021-04-26T08:36:47+02:00</time>
      </trkpt>
      <trkpt lat="47.51923" lon="3.71974">
        <ele>232</ele>
        <time>2021-04-26T08:36:52+02:00</time>
      </trkpt>
    </trkseg>
  </trk>
</gpx>